sensor_id;sensor_type;location;lat;lon;timestamp;P1;P2;P0
47982;PMS5003;33751;50.816;-1.214;2024-01-25T00:00:34;9;7;
47982;PMS5003;33751;50.816;-1.214;2024-01-25T00:03:01;9;7;
47982;PMS5003;33751;50.816;-1.214;2024-01-25T00:05:29;4;1;
47982;PMS5003;33751;50.816;-1.214;2024-01-25T00:07:55;4;3;
47982;PMS5003;33751;50.816;-1.214;2024-01-25T00:10:22;6;5;
47982;PMS5003;33751;50.816;-1.214;2024-01-25T00:12:49;6;6;
47982;PMS5003;33751;50.816;-1.214;2024-01-25T00:15:16;4;4;
47982;PMS5003;33751;50.816;-1.214;2024-01-25T00:17:43;6;4;
47982;PMS5003;33751;50.816;-1.214;2024-01-25T00:20:10;6;4;
47982;PMS5003;33751;50.816;-1.214;2024-01-25T00:22:38;11;4;
47982;PMS5003;33751;50.816;-1.214;2024-01-25T00:25:05;6;6;
47982;PMS5003;33751;50.816;-1.214;2024-01-25T00:27:32;4;4;
47982;PMS5003;33751;50.816;-1.214;2024-01-25T00:29:58;7;6;
47982;PMS5003;33751;50.816;-1.214;2024-01-25T00:32:25;11;6;
47982;PMS5003;33751;50.816;-1.214;2024-01-25T00:34:53;5;4;
47982;PMS5003;33751;50.816;-1.214;2024-01-25T00:37:20;8;8;
47982;PMS5003;33751;50.816;-1.214;2024-01-25T00:39:48;6;2;
47982;PMS5003;33751;50.816;-1.214;2024-01-25T00:42:16;8;5;
47982;PMS5003;33751;50.816;-1.214;2024-01-25T00:44:47;4;2;
47982;PMS5003;33751;50.816;-1.214;2024-01-25T00:47:15;2;2;
47982;PMS5003;33751;50.816;-1.214;2024-01-25T00:49:43;6;4;
47982;PMS5003;33751;50.816;-1.214;2024-01-25T00:52:10;4;4;
47982;PMS5003;33751;50.816;-1.214;2024-01-25T00:54:38;4;4;
47982;PMS5003;33751;50.816;-1.214;2024-01-25T00:57:06;10;5;
47982;PMS5003;33751;50.816;-1.214;2024-01-25T00:59:34;4;4;
47982;PMS5003;33751;50.816;-1.214;2024-01-25T01:02:02;5;5;
47982;PMS5003;33751;50.816;-1.214;2024-01-25T01:04:31;6;4;
47982;PMS5003;33751;50.816;-1.214;2024-01-25T01:06:58;7;4;
47982;PMS5003;33751;50.816;-1.214;2024-01-25T01:09:25;6;4;
47982;PMS5003;33751;50.816;-1.214;2024-01-25T01:11:52;3;2;
47982;PMS5003;33751;50.816;-1.214;2024-01-25T01:14:18;4;4;
47982;PMS5003;33751;50.816;-1.214;2024-01-25T01:16:45;9;7;
47982;PMS5003;33751;50.816;-1.214;2024-01-25T01:19:11;3;3;
47982;PMS5003;33751;50.816;-1.214;2024-01-25T01:21:38;5;4;
47982;PMS5003;33751;50.816;-1.214;2024-01-25T01:24:05;9;3;
47982;PMS5003;33751;50.816;-1.214;2024-01-25T01:26:32;3;3;
47982;PMS5003;33751;50.816;-1.214;2024-01-25T01:28:59;4;4;
47982;PMS5003;33751;50.816;-1.214;2024-01-25T01:31:25;4;3;
47982;PMS5003;33751;50.816;-1.214;2024-01-25T01:33:52;4;4;
47982;PMS5003;33751;50.816;-1.214;2024-01-25T01:36:18;6;5;
47982;PMS5003;33751;50.816;-1.214;2024-01-25T01:38:45;2;2;
47982;PMS5003;33751;50.816;-1.214;2024-01-25T01:41:12;4;4;
47982;PMS5003;33751;50.816;-1.214;2024-01-25T01:43:38;7;5;
47982;PMS5003;33751;50.816;-1.214;2024-01-25T01:46:08;3;3;
47982;PMS5003;33751;50.816;-1.214;2024-01-25T01:48:38;4;4;
47982;PMS5003;33751;50.816;-1.214;2024-01-25T01:51:06;7;5;
47982;PMS5003;33751;50.816;-1.214;2024-01-25T01:53:34;2;2;
47982;PMS5003;33751;50.816;-1.214;2024-01-25T01:56:02;5;3;
47982;PMS5003;33751;50.816;-1.214;2024-01-25T01:58:29;5;5;
47982;PMS5003;33751;50.816;-1.214;2024-01-25T02:00:58;8;4;
47982;PMS5003;33751;50.816;-1.214;2024-01-25T02:03:26;6;3;
47982;PMS5003;33751;50.816;-1.214;2024-01-25T02:05:53;9;5;
47982;PMS5003;33751;50.816;-1.214;2024-01-25T02:08:20;3;3;
47982;PMS5003;33751;50.816;-1.214;2024-01-25T02:10:46;5;4;
47982;PMS5003;33751;50.816;-1.214;2024-01-25T02:13:14;4;4;
47982;PMS5003;33751;50.816;-1.214;2024-01-25T02:15:41;4;4;
47982;PMS5003;33751;50.816;-1.214;2024-01-25T02:18:07;4;4;
47982;PMS5003;33751;50.816;-1.214;2024-01-25T02:20:35;4;4;
47982;PMS5003;33751;50.816;-1.214;2024-01-25T02:23:01;6;6;
47982;PMS5003;33751;50.816;-1.214;2024-01-25T02:25:29;5;5;
47982;PMS5003;33751;50.816;-1.214;2024-01-25T02:27:55;6;5;
47982;PMS5003;33751;50.816;-1.214;2024-01-25T02:30:22;4;3;
47982;PMS5003;33751;50.816;-1.214;2024-01-25T02:32:49;5;5;
47982;PMS5003;33751;50.816;-1.214;2024-01-25T02:35:16;2;2;
47982;PMS5003;33751;50.816;-1.214;2024-01-25T02:37:42;3;3;
47982;PMS5003;33751;50.816;-1.214;2024-01-25T02:40:09;5;4;
47982;PMS5003;33751;50.816;-1.214;2024-01-25T02:42:37;5;5;
47982;PMS5003;33751;50.816;-1.214;2024-01-25T02:45:04;4;4;
47982;PMS5003;33751;50.816;-1.214;2024-01-25T02:47:31;3;3;
47982;PMS5003;33751;50.816;-1.214;2024-01-25T02:49:58;2;2;
47982;PMS5003;33751;50.816;-1.214;2024-01-25T02:52:24;4;4;
47982;PMS5003;33751;50.816;-1.214;2024-01-25T02:54:51;3;2;
47982;PMS5003;33751;50.816;-1.214;2024-01-25T02:57:17;3;3;
47982;PMS5003;33751;50.816;-1.214;2024-01-25T02:59:45;4;4;
47982;PMS5003;33751;50.816;-1.214;2024-01-25T03:02:11;4;3;
47982;PMS5003;33751;50.816;-1.214;2024-01-25T03:04:38;6;4;
47982;PMS5003;33751;50.816;-1.214;2024-01-25T03:07:05;2;2;
47982;PMS5003;33751;50.816;-1.214;2024-01-25T03:09:32;7;6;
47982;PMS5003;33751;50.816;-1.214;2024-01-25T03:11:58;5;4;
47982;PMS5003;33751;50.816;-1.214;2024-01-25T03:14:25;2;2;
47982;PMS5003;33751;50.816;-1.214;2024-01-25T03:16:52;5;4;
47982;PMS5003;33751;50.816;-1.214;2024-01-25T03:19:20;3;3;
47982;PMS5003;33751;50.816;-1.214;2024-01-25T03:21:48;4;4;
47982;PMS5003;33751;50.816;-1.214;2024-01-25T03:24:14;3;3;
47982;PMS5003;33751;50.816;-1.214;2024-01-25T03:26:41;2;2;
47982;PMS5003;33751;50.816;-1.214;2024-01-25T03:29:08;2;1;
47982;PMS5003;33751;50.816;-1.214;2024-01-25T03:31:34;2;2;
47982;PMS5003;33751;50.816;-1.214;2024-01-25T03:34:01;4;3;
47982;PMS5003;33751;50.816;-1.214;2024-01-25T03:36:28;4;4;
47982;PMS5003;33751;50.816;-1.214;2024-01-25T03:38:55;2;2;
47982;PMS5003;33751;50.816;-1.214;2024-01-25T03:41:21;3;3;
47982;PMS5003;33751;50.816;-1.214;2024-01-25T03:43:48;2;2;
47982;PMS5003;33751;50.816;-1.214;2024-01-25T03:46:15;3;3;
47982;PMS5003;33751;50.816;-1.214;2024-01-25T03:48:42;2;2;
47982;PMS5003;33751;50.816;-1.214;2024-01-25T03:51:09;4;3;
47982;PMS5003;33751;50.816;-1.214;2024-01-25T03:53:36;3;3;
47982;PMS5003;33751;50.816;-1.214;2024-01-25T03:56:04;3;3;
47982;PMS5003;33751;50.816;-1.214;2024-01-25T03:58:37;3;3;
47982;PMS5003;33751;50.816;-1.214;2024-01-25T04:01:03;2;2;
47982;PMS5003;33751;50.816;-1.214;2024-01-25T04:03:30;3;3;
47982;PMS5003;33751;50.816;-1.214;2024-01-25T04:05:57;5;5;
47982;PMS5003;33751;50.816;-1.214;2024-01-25T04:08:24;4;1;
47982;PMS5003;33751;50.816;-1.214;2024-01-25T04:10:50;2;2;
47982;PMS5003;33751;50.816;-1.214;2024-01-25T04:13:17;8;2;
47982;PMS5003;33751;50.816;-1.214;2024-01-25T04:15:43;3;2;
47982;PMS5003;33751;50.816;-1.214;2024-01-25T04:18:10;5;5;
47982;PMS5003;33751;50.816;-1.214;2024-01-25T04:20:37;1;1;
47982;PMS5003;33751;50.816;-1.214;2024-01-25T04:23:03;2;2;
47982;PMS5003;33751;50.816;-1.214;2024-01-25T04:25:30;3;3;
47982;PMS5003;33751;50.816;-1.214;2024-01-25T04:27:57;2;2;
47982;PMS5003;33751;50.816;-1.214;2024-01-25T04:30:23;5;3;
47982;PMS5003;33751;50.816;-1.214;2024-01-25T04:32:50;2;2;
47982;PMS5003;33751;50.816;-1.214;2024-01-25T04:35:17;2;2;
47982;PMS5003;33751;50.816;-1.214;2024-01-25T04:37:44;3;3;
47982;PMS5003;33751;50.816;-1.214;2024-01-25T04:40:11;1;1;
47982;PMS5003;33751;50.816;-1.214;2024-01-25T04:42:38;4;2;
47982;PMS5003;33751;50.816;-1.214;2024-01-25T04:45:05;2;2;
47982;PMS5003;33751;50.816;-1.214;2024-01-25T04:47:32;4;2;
47982;PMS5003;33751;50.816;-1.214;2024-01-25T04:49:59;2;2;
47982;PMS5003;33751;50.816;-1.214;2024-01-25T04:52:26;1;1;
47982;PMS5003;33751;50.816;-1.214;2024-01-25T04:54:53;1;1;
47982;PMS5003;33751;50.816;-1.214;2024-01-25T04:57:20;2;2;
47982;PMS5003;33751;50.816;-1.214;2024-01-25T04:59:46;1;1;
47982;PMS5003;33751;50.816;-1.214;2024-01-25T05:02:13;3;2;
47982;PMS5003;33751;50.816;-1.214;2024-01-25T05:04:40;2;2;
47982;PMS5003;33751;50.816;-1.214;2024-01-25T05:07:07;2;2;
47982;PMS5003;33751;50.816;-1.214;2024-01-25T05:09:33;2;2;
47982;PMS5003;33751;50.816;-1.214;2024-01-25T05:12:00;3;2;
47982;PMS5003;33751;50.816;-1.214;2024-01-25T05:14:26;1;1;
47982;PMS5003;33751;50.816;-1.214;2024-01-25T05:16:53;3;2;
47982;PMS5003;33751;50.816;-1.214;2024-01-25T05:19:20;1;1;
47982;PMS5003;33751;50.816;-1.214;2024-01-25T05:21:47;3;1;
47982;PMS5003;33751;50.816;-1.214;2024-01-25T05:24:14;1;1;
47982;PMS5003;33751;50.816;-1.214;2024-01-25T05:26:40;1;0;
47982;PMS5003;33751;50.816;-1.214;2024-01-25T05:29:07;2;2;
47982;PMS5003;33751;50.816;-1.214;2024-01-25T05:31:34;2;2;
47982;PMS5003;33751;50.816;-1.214;2024-01-25T05:34:01;0;0;
47982;PMS5003;33751;50.816;-1.214;2024-01-25T05:36:28;3;2;
47982;PMS5003;33751;50.816;-1.214;2024-01-25T05:38:55;0;0;
47982;PMS5003;33751;50.816;-1.214;2024-01-25T05:41:22;1;1;
47982;PMS5003;33751;50.816;-1.214;2024-01-25T05:43:48;2;2;
47982;PMS5003;33751;50.816;-1.214;2024-01-25T05:46:15;0;0;
47982;PMS5003;33751;50.816;-1.214;2024-01-25T05:48:41;1;1;
47982;PMS5003;33751;50.816;-1.214;2024-01-25T05:51:08;1;0;
47982;PMS5003;33751;50.816;-1.214;2024-01-25T05:53:34;1;1;
47982;PMS5003;33751;50.816;-1.214;2024-01-25T05:56:01;0;0;
47982;PMS5003;33751;50.816;-1.214;2024-01-25T05:58:27;2;1;
47982;PMS5003;33751;50.816;-1.214;2024-01-25T06:00:55;1;1;
47982;PMS5003;33751;50.816;-1.214;2024-01-25T06:03:21;1;0;
47982;PMS5003;33751;50.816;-1.214;2024-01-25T06:05:48;1;0;
47982;PMS5003;33751;50.816;-1.214;2024-01-25T06:08:15;0;0;
47982;PMS5003;33751;50.816;-1.214;2024-01-25T06:10:41;2;1;
47982;PMS5003;33751;50.816;-1.214;2024-01-25T06:13:08;4;1;
47982;PMS5003;33751;50.816;-1.214;2024-01-25T06:15:34;0;0;
47982;PMS5003;33751;50.816;-1.214;2024-01-25T06:18:01;1;1;
47982;PMS5003;33751;50.816;-1.214;2024-01-25T06:20:27;1;1;
47982;PMS5003;33751;50.816;-1.214;2024-01-25T06:22:54;0;0;
47982;PMS5003;33751;50.816;-1.214;2024-01-25T06:25:20;1;1;
47982;PMS5003;33751;50.816;-1.214;2024-01-25T06:27:48;2;2;
47982;PMS5003;33751;50.816;-1.214;2024-01-25T06:30:15;1;1;
47982;PMS5003;33751;50.816;-1.214;2024-01-25T06:32:41;0;0;
47982;PMS5003;33751;50.816;-1.214;2024-01-25T06:35:08;0;0;
47982;PMS5003;33751;50.816;-1.214;2024-01-25T06:37:35;0;0;
47982;PMS5003;33751;50.816;-1.214;2024-01-25T06:40:02;1;0;
47982;PMS5003;33751;50.816;-1.214;2024-01-25T06:42:29;0;0;
47982;PMS5003;33751;50.816;-1.214;2024-01-25T06:44:55;2;2;
47982;PMS5003;33751;50.816;-1.214;2024-01-25T06:47:22;1;1;
47982;PMS5003;33751;50.816;-1.214;2024-01-25T06:49:48;2;1;
47982;PMS5003;33751;50.816;-1.214;2024-01-25T06:52:15;1;1;
47982;PMS5003;33751;50.816;-1.214;2024-01-25T06:54:41;0;0;
47982;PMS5003;33751;50.816;-1.214;2024-01-25T06:57:08;0;0;
47982;PMS5003;33751;50.816;-1.214;2024-01-25T06:59:35;0;0;
47982;PMS5003;33751;50.816;-1.214;2024-01-25T07:02:02;0;0;
47982;PMS5003;33751;50.816;-1.214;2024-01-25T07:04:28;1;0;
47982;PMS5003;33751;50.816;-1.214;2024-01-25T07:06:55;0;0;
47982;PMS5003;33751;50.816;-1.214;2024-01-25T07:09:21;2;2;
47982;PMS5003;33751;50.816;-1.214;2024-01-25T07:11:48;0;0;
47982;PMS5003;33751;50.816;-1.214;2024-01-25T07:14:15;0;0;
47982;PMS5003;33751;50.816;-1.214;2024-01-25T07:16:41;2;2;
47982;PMS5003;33751;50.816;-1.214;2024-01-25T07:19:08;0;0;
47982;PMS5003;33751;50.816;-1.214;2024-01-25T07:21:35;0;0;
47982;PMS5003;33751;50.816;-1.214;2024-01-25T07:24:02;2;0;
47982;PMS5003;33751;50.816;-1.214;2024-01-25T07:26:30;0;0;
47982;PMS5003;33751;50.816;-1.214;2024-01-25T07:28:56;0;0;
47982;PMS5003;33751;50.816;-1.214;2024-01-25T07:31:23;0;0;
47982;PMS5003;33751;50.816;-1.214;2024-01-25T07:33:50;0;0;
47982;PMS5003;33751;50.816;-1.214;2024-01-25T07:36:17;2;1;
47982;PMS5003;33751;50.816;-1.214;2024-01-25T07:38:44;0;0;
47982;PMS5003;33751;50.816;-1.214;2024-01-25T07:41:11;0;0;
47982;PMS5003;33751;50.816;-1.214;2024-01-25T07:43:38;0;0;
47982;PMS5003;33751;50.816;-1.214;2024-01-25T07:46:05;1;1;
47982;PMS5003;33751;50.816;-1.214;2024-01-25T07:48:32;0;0;
47982;PMS5003;33751;50.816;-1.214;2024-01-25T07:50:59;2;0;
47982;PMS5003;33751;50.816;-1.214;2024-01-25T07:53:25;1;1;
47982;PMS5003;33751;50.816;-1.214;2024-01-25T07:55:52;2;2;
47982;PMS5003;33751;50.816;-1.214;2024-01-25T07:58:19;5;2;
47982;PMS5003;33751;50.816;-1.214;2024-01-25T08:00:46;6;4;
47982;PMS5003;33751;50.816;-1.214;2024-01-25T08:03:14;6;3;
47982;PMS5003;33751;50.816;-1.214;2024-01-25T08:05:40;2;2;
47982;PMS5003;33751;50.816;-1.214;2024-01-25T08:08:07;3;2;
47982;PMS5003;33751;50.816;-1.214;2024-01-25T08:10:34;7;2;
47982;PMS5003;33751;50.816;-1.214;2024-01-25T08:13:01;0;0;
47982;PMS5003;33751;50.816;-1.214;2024-01-25T08:15:28;2;1;
47982;PMS5003;33751;50.816;-1.214;2024-01-25T08:17:54;6;3;
47982;PMS5003;33751;50.816;-1.214;2024-01-25T08:20:21;0;0;
47982;PMS5003;33751;50.816;-1.214;2024-01-25T08:22:48;3;1;
47982;PMS5003;33751;50.816;-1.214;2024-01-25T08:25:15;5;2;
47982;PMS5003;33751;50.816;-1.214;2024-01-25T08:27:41;5;3;
47982;PMS5003;33751;50.816;-1.214;2024-01-25T08:30:08;7;3;
47982;PMS5003;33751;50.816;-1.214;2024-01-25T08:32:36;2;2;
47982;PMS5003;33751;50.816;-1.214;2024-01-25T08:35:03;6;3;
47982;PMS5003;33751;50.816;-1.214;2024-01-25T08:37:29;5;3;
47982;PMS5003;33751;50.816;-1.214;2024-01-25T08:39:56;1;1;
47982;PMS5003;33751;50.816;-1.214;2024-01-25T08:42:23;3;3;
47982;PMS5003;33751;50.816;-1.214;2024-01-25T08:44:51;3;3;
47982;PMS5003;33751;50.816;-1.214;2024-01-25T08:47:18;3;2;
47982;PMS5003;33751;50.816;-1.214;2024-01-25T08:49:44;3;3;
47982;PMS5003;33751;50.816;-1.214;2024-01-25T08:52:11;5;4;
47982;PMS5003;33751;50.816;-1.214;2024-01-25T08:54:38;4;2;
47982;PMS5003;33751;50.816;-1.214;2024-01-25T08:57:05;6;3;
47982;PMS5003;33751;50.816;-1.214;2024-01-25T08:59:33;10;4;
47982;PMS5003;33751;50.816;-1.214;2024-01-25T09:02:01;6;4;
47982;PMS5003;33751;50.816;-1.214;2024-01-25T09:04:27;5;2;
47982;PMS5003;33751;50.816;-1.214;2024-01-25T09:06:54;1;1;
47982;PMS5003;33751;50.816;-1.214;2024-01-25T09:09:21;2;2;
47982;PMS5003;33751;50.816;-1.214;2024-01-25T09:11:48;3;3;
47982;PMS5003;33751;50.816;-1.214;2024-01-25T09:14:15;8;4;
47982;PMS5003;33751;50.816;-1.214;2024-01-25T09:16:42;9;5;
47982;PMS5003;33751;50.816;-1.214;2024-01-25T09:19:09;8;2;
47982;PMS5003;33751;50.816;-1.214;2024-01-25T09:21:38;6;2;
47982;PMS5003;33751;50.816;-1.214;2024-01-25T09:24:05;6;4;
47982;PMS5003;33751;50.816;-1.214;2024-01-25T09:26:32;3;2;
47982;PMS5003;33751;50.816;-1.214;2024-01-25T09:29:00;4;4;
47982;PMS5003;33751;50.816;-1.214;2024-01-25T09:31:27;7;4;
47982;PMS5003;33751;50.816;-1.214;2024-01-25T09:33:54;4;3;
47982;PMS5003;33751;50.816;-1.214;2024-01-25T09:36:21;4;3;
47982;PMS5003;33751;50.816;-1.214;2024-01-25T09:38:47;8;4;
47982;PMS5003;33751;50.816;-1.214;2024-01-25T09:41:15;7;5;
47982;PMS5003;33751;50.816;-1.214;2024-01-25T09:43:41;4;4;
47982;PMS5003;33751;50.816;-1.214;2024-01-25T09:46:08;12;8;
47982;PMS5003;33751;50.816;-1.214;2024-01-25T09:48:40;7;7;
47982;PMS5003;33751;50.816;-1.214;2024-01-25T09:51:07;11;9;
47982;PMS5003;33751;50.816;-1.214;2024-01-25T09:53:34;12;9;
47982;PMS5003;33751;50.816;-1.214;2024-01-25T09:56:05;20;13;
47982;PMS5003;33751;50.816;-1.214;2024-01-25T09:58:36;10;10;
47982;PMS5003;33751;50.816;-1.214;2024-01-25T10:01:07;12;9;
47982;PMS5003;33751;50.816;-1.214;2024-01-25T10:03:35;9;8;
47982;PMS5003;33751;50.816;-1.214;2024-01-25T10:06:02;19;11;
47982;PMS5003;33751;50.816;-1.214;2024-01-25T10:08:29;19;17;
47982;PMS5003;33751;50.816;-1.214;2024-01-25T10:10:56;13;10;
47982;PMS5003;33751;50.816;-1.214;2024-01-25T10:13:23;23;16;
47982;PMS5003;33751;50.816;-1.214;2024-01-25T10:15:50;26;17;
47982;PMS5003;33751;50.816;-1.214;2024-01-25T10:18:17;22;16;
47982;PMS5003;33751;50.816;-1.214;2024-01-25T10:20:44;18;15;
47982;PMS5003;33751;50.816;-1.214;2024-01-25T10:23:11;14;11;
47982;PMS5003;33751;50.816;-1.214;2024-01-25T10:25:38;28;17;
47982;PMS5003;33751;50.816;-1.214;2024-01-25T10:28:05;17;12;
47982;PMS5003;33751;50.816;-1.214;2024-01-25T10:30:33;19;17;
47982;PMS5003;33751;50.816;-1.214;2024-01-25T10:33:02;21;13;
47982;PMS5003;33751;50.816;-1.214;2024-01-25T10:35:29;16;13;
47982;PMS5003;33751;50.816;-1.214;2024-01-25T10:37:57;12;8;
47982;PMS5003;33751;50.816;-1.214;2024-01-25T10:40:26;11;11;
47982;PMS5003;33751;50.816;-1.214;2024-01-25T10:42:54;19;17;
47982;PMS5003;33751;50.816;-1.214;2024-01-25T10:45:20;21;13;
47982;PMS5003;33751;50.816;-1.214;2024-01-25T10:47:48;24;14;
47982;PMS5003;33751;50.816;-1.214;2024-01-25T10:50:16;25;16;
47982;PMS5003;33751;50.816;-1.214;2024-01-25T10:52:43;18;12;
47982;PMS5003;33751;50.816;-1.214;2024-01-25T10:55:11;19;14;
47982;PMS5003;33751;50.816;-1.214;2024-01-25T10:57:41;15;12;
47982;PMS5003;33751;50.816;-1.214;2024-01-25T11:00:10;26;16;
47982;PMS5003;33751;50.816;-1.214;2024-01-25T11:02:39;15;13;
47982;PMS5003;33751;50.816;-1.214;2024-01-25T11:05:08;15;11;
47982;PMS5003;33751;50.816;-1.214;2024-01-25T11:07:51;20;15;
47982;PMS5003;33751;50.816;-1.214;2024-01-25T11:10:18;23;16;
47982;PMS5003;33751;50.816;-1.214;2024-01-25T11:12:48;20;15;
47982;PMS5003;33751;50.816;-1.214;2024-01-25T11:15:19;12;10;
47982;PMS5003;33751;50.816;-1.214;2024-01-25T11:17:51;18;14;
47982;PMS5003;33751;50.816;-1.214;2024-01-25T11:20:21;18;16;
47982;PMS5003;33751;50.816;-1.214;2024-01-25T11:22:54;14;13;
47982;PMS5003;33751;50.816;-1.214;2024-01-25T11:25:22;21;13;
47982;PMS5003;33751;50.816;-1.214;2024-01-25T11:27:50;8;8;
47982;PMS5003;33751;50.816;-1.214;2024-01-25T11:30:17;17;13;
47982;PMS5003;33751;50.816;-1.214;2024-01-25T11:32:46;14;14;
47982;PMS5003;33751;50.816;-1.214;2024-01-25T11:35:13;20;15;
47982;PMS5003;33751;50.816;-1.214;2024-01-25T11:37:39;14;12;
47982;PMS5003;33751;50.816;-1.214;2024-01-25T11:40:07;18;17;
47982;PMS5003;33751;50.816;-1.214;2024-01-25T11:42:35;19;16;
47982;PMS5003;33751;50.816;-1.214;2024-01-25T11:45:02;25;16;
47982;PMS5003;33751;50.816;-1.214;2024-01-25T11:47:29;24;15;
47982;PMS5003;33751;50.816;-1.214;2024-01-25T11:49:57;19;15;
47982;PMS5003;33751;50.816;-1.214;2024-01-25T11:52:23;21;13;
47982;PMS5003;33751;50.816;-1.214;2024-01-25T11:54:50;25;17;
47982;PMS5003;33751;50.816;-1.214;2024-01-25T11:57:17;22;15;
47982;PMS5003;33751;50.816;-1.214;2024-01-25T11:59:44;14;14;
47982;PMS5003;33751;50.816;-1.214;2024-01-25T12:02:11;18;12;
47982;PMS5003;33751;50.816;-1.214;2024-01-25T12:04:39;18;13;
47982;PMS5003;33751;50.816;-1.214;2024-01-25T12:07:06;23;16;
47982;PMS5003;33751;50.816;-1.214;2024-01-25T12:09:33;17;16;
47982;PMS5003;33751;50.816;-1.214;2024-01-25T12:12:00;17;16;
47982;PMS5003;33751;50.816;-1.214;2024-01-25T12:14:27;20;16;
47982;PMS5003;33751;50.816;-1.214;2024-01-25T12:16:54;16;14;
47982;PMS5003;33751;50.816;-1.214;2024-01-25T12:19:22;23;17;
47982;PMS5003;33751;50.816;-1.214;2024-01-25T12:21:49;18;12;
47982;PMS5003;33751;50.816;-1.214;2024-01-25T12:24:16;28;19;
47982;PMS5003;33751;50.816;-1.214;2024-01-25T12:26:46;20;16;
47982;PMS5003;33751;50.816;-1.214;2024-01-25T12:29:13;22;13;
47982;PMS5003;33751;50.816;-1.214;2024-01-25T12:31:40;20;16;
47982;PMS5003;33751;50.816;-1.214;2024-01-25T12:34:13;23;15;
47982;PMS5003;33751;50.816;-1.214;2024-01-25T12:36:40;21;16;
47982;PMS5003;33751;50.816;-1.214;2024-01-25T12:39:07;23;19;
47982;PMS5003;33751;50.816;-1.214;2024-01-25T12:41:33;25;14;
47982;PMS5003;33751;50.816;-1.214;2024-01-25T12:44:01;23;16;
47982;PMS5003;33751;50.816;-1.214;2024-01-25T12:46:28;24;19;
47982;PMS5003;33751;50.816;-1.214;2024-01-25T12:48:54;21;21;
47982;PMS5003;33751;50.816;-1.214;2024-01-25T12:51:21;25;21;
47982;PMS5003;33751;50.816;-1.214;2024-01-25T12:53:48;21;16;
47982;PMS5003;33751;50.816;-1.214;2024-01-25T12:56:15;25;21;
47982;PMS5003;33751;50.816;-1.214;2024-01-25T12:58:42;22;17;
47982;PMS5003;33751;50.816;-1.214;2024-01-25T13:01:09;26;17;
47982;PMS5003;33751;50.816;-1.214;2024-01-25T13:03:36;28;19;
47982;PMS5003;33751;50.816;-1.214;2024-01-25T13:06:03;19;16;
47982;PMS5003;33751;50.816;-1.214;2024-01-25T13:08:31;19;15;
47982;PMS5003;33751;50.816;-1.214;2024-01-25T13:10:57;22;18;
47982;PMS5003;33751;50.816;-1.214;2024-01-25T13:13:24;29;22;
47982;PMS5003;33751;50.816;-1.214;2024-01-25T13:15:51;27;19;
47982;PMS5003;33751;50.816;-1.214;2024-01-25T13:18:18;21;18;
47982;PMS5003;33751;50.816;-1.214;2024-01-25T13:20:45;20;17;
47982;PMS5003;33751;50.816;-1.214;2024-01-25T13:23:11;19;15;
47982;PMS5003;33751;50.816;-1.214;2024-01-25T13:25:39;25;19;
47982;PMS5003;33751;50.816;-1.214;2024-01-25T13:28:05;24;16;
47982;PMS5003;33751;50.816;-1.214;2024-01-25T13:30:33;30;21;
47982;PMS5003;33751;50.816;-1.214;2024-01-25T13:33:00;27;16;
47982;PMS5003;33751;50.816;-1.214;2024-01-25T13:35:27;23;16;
47982;PMS5003;33751;50.816;-1.214;2024-01-25T13:37:53;19;16;
47982;PMS5003;33751;50.816;-1.214;2024-01-25T13:40:20;31;20;
47982;PMS5003;33751;50.816;-1.214;2024-01-25T13:42:48;24;15;
47982;PMS5003;33751;50.816;-1.214;2024-01-25T13:45:15;19;12;
47982;PMS5003;33751;50.816;-1.214;2024-01-25T13:47:42;24;16;
47982;PMS5003;33751;50.816;-1.214;2024-01-25T13:50:09;24;19;
47982;PMS5003;33751;50.816;-1.214;2024-01-25T13:52:36;19;14;
47982;PMS5003;33751;50.816;-1.214;2024-01-25T13:55:03;15;13;
47982;PMS5003;33751;50.816;-1.214;2024-01-25T13:57:31;26;16;
47982;PMS5003;33751;50.816;-1.214;2024-01-25T13:59:58;23;18;
47982;PMS5003;33751;50.816;-1.214;2024-01-25T14:02:25;15;13;
47982;PMS5003;33751;50.816;-1.214;2024-01-25T14:04:52;19;19;
47982;PMS5003;33751;50.816;-1.214;2024-01-25T14:07:19;16;16;
47982;PMS5003;33751;50.816;-1.214;2024-01-25T14:09:46;17;15;
47982;PMS5003;33751;50.816;-1.214;2024-01-25T14:12:13;25;17;
47982;PMS5003;33751;50.816;-1.214;2024-01-25T14:14:40;17;15;
47982;PMS5003;33751;50.816;-1.214;2024-01-25T14:17:08;21;17;
47982;PMS5003;33751;50.816;-1.214;2024-01-25T14:19:34;27;16;
47982;PMS5003;33751;50.816;-1.214;2024-01-25T14:22:01;27;17;
47982;PMS5003;33751;50.816;-1.214;2024-01-25T14:24:28;19;13;
47982;PMS5003;33751;50.816;-1.214;2024-01-25T14:26:55;21;17;
47982;PMS5003;33751;50.816;-1.214;2024-01-25T14:29:22;24;13;
47982;PMS5003;33751;50.816;-1.214;2024-01-25T14:31:49;15;11;
47982;PMS5003;33751;50.816;-1.214;2024-01-25T14:34:15;18;17;
47982;PMS5003;33751;50.816;-1.214;2024-01-25T14:36:42;16;15;
47982;PMS5003;33751;50.816;-1.214;2024-01-25T14:39:08;14;14;
47982;PMS5003;33751;50.816;-1.214;2024-01-25T14:41:35;23;16;
47982;PMS5003;33751;50.816;-1.214;2024-01-25T14:44:02;25;13;
47982;PMS5003;33751;50.816;-1.214;2024-01-25T14:46:29;25;17;
47982;PMS5003;33751;50.816;-1.214;2024-01-25T14:48:56;18;13;
47982;PMS5003;33751;50.816;-1.214;2024-01-25T14:51:22;15;15;
47982;PMS5003;33751;50.816;-1.214;2024-01-25T14:53:49;18;15;
47982;PMS5003;33751;50.816;-1.214;2024-01-25T14:56:15;22;15;
47982;PMS5003;33751;50.816;-1.214;2024-01-25T14:58:42;15;14;
47982;PMS5003;33751;50.816;-1.214;2024-01-25T15:01:12;21;15;
47982;PMS5003;33751;50.816;-1.214;2024-01-25T15:03:39;17;16;
47982;PMS5003;33751;50.816;-1.214;2024-01-25T15:06:06;18;13;
47982;PMS5003;33751;50.816;-1.214;2024-01-25T15:08:33;21;15;
47982;PMS5003;33751;50.816;-1.214;2024-01-25T15:11:00;21;16;
47982;PMS5003;33751;50.816;-1.214;2024-01-25T15:13:26;24;18;
47982;PMS5003;33751;50.816;-1.214;2024-01-25T15:15:53;25;17;
47982;PMS5003;33751;50.816;-1.214;2024-01-25T15:18:20;24;13;
47982;PMS5003;33751;50.816;-1.214;2024-01-25T15:20:47;24;19;
47982;PMS5003;33751;50.816;-1.214;2024-01-25T15:23:14;20;12;
47982;PMS5003;33751;50.816;-1.214;2024-01-25T15:25:41;14;13;
47982;PMS5003;33751;50.816;-1.214;2024-01-25T15:28:07;17;15;
47982;PMS5003;33751;50.816;-1.214;2024-01-25T15:30:34;22;12;
47982;PMS5003;33751;50.816;-1.214;2024-01-25T15:33:01;24;17;
47982;PMS5003;33751;50.816;-1.214;2024-01-25T15:35:28;21;13;
47982;PMS5003;33751;50.816;-1.214;2024-01-25T15:37:55;22;14;
47982;PMS5003;33751;50.816;-1.214;2024-01-25T15:40:21;21;13;
47982;PMS5003;33751;50.816;-1.214;2024-01-25T15:42:48;23;14;
47982;PMS5003;33751;50.816;-1.214;2024-01-25T15:45:16;17;12;
47982;PMS5003;33751;50.816;-1.214;2024-01-25T15:47:43;12;12;
47982;PMS5003;33751;50.816;-1.214;2024-01-25T15:50:10;25;15;
47982;PMS5003;33751;50.816;-1.214;2024-01-25T15:52:36;17;14;
47982;PMS5003;33751;50.816;-1.214;2024-01-25T15:55:03;16;12;
47982;PMS5003;33751;50.816;-1.214;2024-01-25T15:57:31;23;15;
47982;PMS5003;33751;50.816;-1.214;2024-01-25T15:59:58;16;9;
47982;PMS5003;33751;50.816;-1.214;2024-01-25T16:02:25;16;12;
47982;PMS5003;33751;50.816;-1.214;2024-01-25T16:04:51;16;12;
47982;PMS5003;33751;50.816;-1.214;2024-01-25T16:07:18;15;12;
47982;PMS5003;33751;50.816;-1.214;2024-01-25T16:09:44;23;14;
47982;PMS5003;33751;50.816;-1.214;2024-01-25T16:12:11;16;13;
47982;PMS5003;33751;50.816;-1.214;2024-01-25T16:14:38;22;14;
47982;PMS5003;33751;50.816;-1.214;2024-01-25T16:17:05;15;10;
47982;PMS5003;33751;50.816;-1.214;2024-01-25T16:19:32;18;14;